sensor_id;sensor_type;location;lat;lon;timestamp;temperature;humidity
2647;DHT22;1333;50.958;6.770;2023-11-22T00:00:36;5.80;99.90
2647;DHT22;1333;50.958;6.770;2023-11-22T00:03:02;5.90;99.90
2647;DHT22;1333;50.958;6.770;2023-11-22T00:05:27;6.00;99.90
2647;DHT22;1333;50.958;6.770;2023-11-22T00:07:53;6.00;99.90
2647;DHT22;1333;50.958;6.770;2023-11-22T00:10:18;6.10;99.90
2647;DHT22;1333;50.958;6.770;2023-11-22T00:12:44;6.20;99.90
2647;DHT22;1333;50.958;6.770;2023-11-22T00:15:09;6.30;99.90
2647;DHT22;1333;50.958;6.770;2023-11-22T00:17:37;6.40;99.90
2647;DHT22;1333;50.958;6.770;2023-11-22T00:20:03;6.50;99.90
2647;DHT22;1333;50.958;6.770;2023-11-22T00:22:34;6.60;99.90
2647;DHT22;1333;50.958;6.770;2023-11-22T00:25:00;6.70;99.90
2647;DHT22;1333;50.958;6.770;2023-11-22T00:27:27;6.70;99.90
2647;DHT22;1333;50.958;6.770;2023-11-22T00:29:53;6.80;99.90
2647;DHT22;1333;50.958;6.770;2023-11-22T00:32:18;6.80;99.90
2647;DHT22;1333;50.958;6.770;2023-11-22T00:34:44;6.80;99.90
2647;DHT22;1333;50.958;6.770;2023-11-22T00:37:10;6.90;99.90
2647;DHT22;1333;50.958;6.770;2023-11-22T00:39:36;6.90;99.90
2647;DHT22;1333;50.958;6.770;2023-11-22T00:42:02;6.90;99.90
2647;DHT22;1333;50.958;6.770;2023-11-22T00:44:29;6.90;99.90
2647;DHT22;1333;50.958;6.770;2023-11-22T00:46:55;6.90;99.90
2647;DHT22;1333;50.958;6.770;2023-11-22T00:49:22;7.00;99.90
2647;DHT22;1333;50.958;6.770;2023-11-22T00:51:48;7.00;99.90
2647;DHT22;1333;50.958;6.770;2023-11-22T00:54:13;7.00;99.90
2647;DHT22;1333;50.958;6.770;2023-11-22T00:56:40;7.00;99.90
2647;DHT22;1333;50.958;6.770;2023-11-22T00:59:06;7.00;99.90
2647;DHT22;1333;50.958;6.770;2023-11-22T01:01:31;7.00;99.90
2647;DHT22;1333;50.958;6.770;2023-11-22T01:03:57;7.00;99.90
2647;DHT22;1333;50.958;6.770;2023-11-22T01:06:23;7.10;99.90
2647;DHT22;1333;50.958;6.770;2023-11-22T01:08:48;7.00;99.90
2647;DHT22;1333;50.958;6.770;2023-11-22T01:11:14;7.00;99.90
2647;DHT22;1333;50.958;6.770;2023-11-22T01:13:40;7.00;99.90
2647;DHT22;1333;50.958;6.770;2023-11-22T01:16:08;7.00;99.90
2647;DHT22;1333;50.958;6.770;2023-11-22T01:18:33;7.00;99.90
2647;DHT22;1333;50.958;6.770;2023-11-22T01:20:59;7.00;99.90
2647;DHT22;1333;50.958;6.770;2023-11-22T01:23:25;7.00;99.90
2647;DHT22;1333;50.958;6.770;2023-11-22T01:25:53;7.00;99.90
2647;DHT22;1333;50.958;6.770;2023-11-22T01:28:19;7.00;99.90
2647;DHT22;1333;50.958;6.770;2023-11-22T01:30:44;7.00;99.90
2647;DHT22;1333;50.958;6.770;2023-11-22T01:33:14;7.10;99.90
2647;DHT22;1333;50.958;6.770;2023-11-22T01:35:40;7.00;99.90
2647;DHT22;1333;50.958;6.770;2023-11-22T01:38:05;7.10;99.90
2647;DHT22;1333;50.958;6.770;2023-11-22T01:40:31;7.00;99.90
2647;DHT22;1333;50.958;6.770;2023-11-22T01:43:00;7.00;99.90
2647;DHT22;1333;50.958;6.770;2023-11-22T01:45:28;7.00;99.90
2647;DHT22;1333;50.958;6.770;2023-11-22T01:47:54;7.00;99.90
2647;DHT22;1333;50.958;6.770;2023-11-22T01:50:20;7.00;99.90
2647;DHT22;1333;50.958;6.770;2023-11-22T01:52:46;7.00;99.90
2647;DHT22;1333;50.958;6.770;2023-11-22T01:55:12;7.00;99.90
2647;DHT22;1333;50.958;6.770;2023-11-22T01:57:39;7.00;99.90
2647;DHT22;1333;50.958;6.770;2023-11-22T02:00:05;7.00;99.90
2647;DHT22;1333;50.958;6.770;2023-11-22T02:02:33;6.90;99.90
2647;DHT22;1333;50.958;6.770;2023-11-22T02:04:59;6.90;99.90
2647;DHT22;1333;50.958;6.770;2023-11-22T02:07:27;6.90;99.90
2647;DHT22;1333;50.958;6.770;2023-11-22T02:09:52;6.90;99.90
2647;DHT22;1333;50.958;6.770;2023-11-22T02:12:19;6.80;99.90
2647;DHT22;1333;50.958;6.770;2023-11-22T02:14:45;6.80;99.90
2647;DHT22;1333;50.958;6.770;2023-11-22T02:17:11;6.80;99.90
2647;DHT22;1333;50.958;6.770;2023-11-22T02:19:36;6.80;99.90
2647;DHT22;1333;50.958;6.770;2023-11-22T02:22:02;6.80;99.90
2647;DHT22;1333;50.958;6.770;2023-11-22T02:24:28;6.70;99.90
2647;DHT22;1333;50.958;6.770;2023-11-22T02:26:53;6.70;99.90
2647;DHT22;1333;50.958;6.770;2023-11-22T02:29:19;6.70;99.90
2647;DHT22;1333;50.958;6.770;2023-11-22T02:31:45;6.70;99.90
2647;DHT22;1333;50.958;6.770;2023-11-22T02:34:11;6.70;99.90
2647;DHT22;1333;50.958;6.770;2023-11-22T02:36:37;6.60;99.90
2647;DHT22;1333;50.958;6.770;2023-11-22T02:39:03;6.60;99.90
2647;DHT22;1333;50.958;6.770;2023-11-22T02:41:28;6.60;99.90
2647;DHT22;1333;50.958;6.770;2023-11-22T02:43:57;6.60;99.90
2647;DHT22;1333;50.958;6.770;2023-11-22T02:46:23;6.50;99.90
2647;DHT22;1333;50.958;6.770;2023-11-22T02:48:49;6.40;99.90
2647;DHT22;1333;50.958;6.770;2023-11-22T02:51:14;6.40;99.90
2647;DHT22;1333;50.958;6.770;2023-11-22T02:53:41;6.30;99.90
2647;DHT22;1333;50.958;6.770;2023-11-22T02:56:09;6.20;99.90
2647;DHT22;1333;50.958;6.770;2023-11-22T02:58:34;6.20;99.90
2647;DHT22;1333;50.958;6.770;2023-11-22T03:01:00;6.10;99.90
2647;DHT22;1333;50.958;6.770;2023-11-22T03:03:26;6.10;99.90
2647;DHT22;1333;50.958;6.770;2023-11-22T03:05:52;6.00;99.90
2647;DHT22;1333;50.958;6.770;2023-11-22T03:08:18;6.10;99.90
2647;DHT22;1333;50.958;6.770;2023-11-22T03:10:43;6.00;99.90
2647;DHT22;1333;50.958;6.770;2023-11-22T03:13:09;6.10;99.90
2647;DHT22;1333;50.958;6.770;2023-11-22T03:15:35;6.00;99.90
2647;DHT22;1333;50.958;6.770;2023-11-22T03:18:00;6.00;99.90
2647;DHT22;1333;50.958;6.770;2023-11-22T03:20:27;6.00;99.90
2647;DHT22;1333;50.958;6.770;2023-11-22T03:22:53;6.00;99.90
2647;DHT22;1333;50.958;6.770;2023-11-22T03:25:18;6.00;99.90
2647;DHT22;1333;50.958;6.770;2023-11-22T03:27:44;5.90;99.90
2647;DHT22;1333;50.958;6.770;2023-11-22T03:30:09;5.90;99.90
2647;DHT22;1333;50.958;6.770;2023-11-22T03:32:38;5.90;99.90
2647;DHT22;1333;50.958;6.770;2023-11-22T03:35:05;5.80;99.90
2647;DHT22;1333;50.958;6.770;2023-11-22T03:37:32;5.80;99.90
2647;DHT22;1333;50.958;6.770;2023-11-22T03:39:58;5.80;99.90
2647;DHT22;1333;50.958;6.770;2023-11-22T03:42:23;5.80;99.90
2647;DHT22;1333;50.958;6.770;2023-11-22T03:44:49;5.80;99.90
2647;DHT22;1333;50.958;6.770;2023-11-22T03:47:15;5.80;99.90
2647;DHT22;1333;50.958;6.770;2023-11-22T03:49:41;5.80;99.90
2647;DHT22;1333;50.958;6.770;2023-11-22T03:52:06;5.80;99.90
2647;DHT22;1333;50.958;6.770;2023-11-22T03:54:33;5.70;99.90
2647;DHT22;1333;50.958;6.770;2023-11-22T03:56:59;5.60;99.90
2647;DHT22;1333;50.958;6.770;2023-11-22T03:59:24;5.50;99.90
2647;DHT22;1333;50.958;6.770;2023-11-22T04:01:50;5.30;99.90
2647;DHT22;1333;50.958;6.770;2023-11-22T04:04:16;5.20;99.90
2647;DHT22;1333;50.958;6.770;2023-11-22T04:06:42;5.10;99.90
2647;DHT22;1333;50.958;6.770;2023-11-22T04:09:07;5.00;99.90
2647;DHT22;1333;50.958;6.770;2023-11-22T04:11:33;4.90;99.90
2647;DHT22;1333;50.958;6.770;2023-11-22T04:14:00;4.80;99.90
2647;DHT22;1333;50.958;6.770;2023-11-22T04:16:25;4.70;99.90
2647;DHT22;1333;50.958;6.770;2023-11-22T04:18:51;4.70;99.90
2647;DHT22;1333;50.958;6.770;2023-11-22T04:21:17;4.60;99.90
2647;DHT22;1333;50.958;6.770;2023-11-22T04:23:42;4.50;99.90
2647;DHT22;1333;50.958;6.770;2023-11-22T04:26:08;4.40;99.90
2647;DHT22;1333;50.958;6.770;2023-11-22T04:28:33;4.30;99.90
2647;DHT22;1333;50.958;6.770;2023-11-22T04:31:00;4.30;99.90
2647;DHT22;1333;50.958;6.770;2023-11-22T04:33:25;4.20;99.90
2647;DHT22;1333;50.958;6.770;2023-11-22T04:35:53;4.20;99.90
2647;DHT22;1333;50.958;6.770;2023-11-22T04:38:19;4.10;99.90
2647;DHT22;1333;50.958;6.770;2023-11-22T04:40:45;4.10;99.90
2647;DHT22;1333;50.958;6.770;2023-11-22T04:43:11;4.00;99.90
2647;DHT22;1333;50.958;6.770;2023-11-22T04:45:36;4.00;99.90
2647;DHT22;1333;50.958;6.770;2023-11-22T04:48:02;3.90;99.90
2647;DHT22;1333;50.958;6.770;2023-11-22T04:50:28;3.90;99.90
2647;DHT22;1333;50.958;6.770;2023-11-22T04:52:54;3.90;99.90
2647;DHT22;1333;50.958;6.770;2023-11-22T04:55:20;3.80;99.90
2647;DHT22;1333;50.958;6.770;2023-11-22T04:57:46;3.80;99.90
2647;DHT22;1333;50.958;6.770;2023-11-22T05:00:12;3.80;99.90
2647;DHT22;1333;50.958;6.770;2023-11-22T05:02:37;3.70;99.90
2647;DHT22;1333;50.958;6.770;2023-11-22T05:05:03;3.70;99.90
2647;DHT22;1333;50.958;6.770;2023-11-22T05:07:29;3.60;99.90
2647;DHT22;1333;50.958;6.770;2023-11-22T05:09:55;3.70;99.90
2647;DHT22;1333;50.958;6.770;2023-11-22T05:12:20;3.60;99.90
2647;DHT22;1333;50.958;6.770;2023-11-22T05:14:46;3.60;99.90
2647;DHT22;1333;50.958;6.770;2023-11-22T05:17:12;3.60;99.90
2647;DHT22;1333;50.958;6.770;2023-11-22T05:19:38;3.60;99.90
2647;DHT22;1333;50.958;6.770;2023-11-22T05:22:04;3.50;99.90
2647;DHT22;1333;50.958;6.770;2023-11-22T05:24:29;3.50;99.90
2647;DHT22;1333;50.958;6.770;2023-11-22T05:26:55;3.50;99.90
2647;DHT22;1333;50.958;6.770;2023-11-22T05:29:21;3.50;99.90
2647;DHT22;1333;50.958;6.770;2023-11-22T05:31:47;3.40;99.90
2647;DHT22;1333;50.958;6.770;2023-11-22T05:34:12;3.40;99.90
2647;DHT22;1333;50.958;6.770;2023-11-22T05:36:38;3.40;99.90
2647;DHT22;1333;50.958;6.770;2023-11-22T05:39:04;3.40;99.90
2647;DHT22;1333;50.958;6.770;2023-11-22T05:41:29;3.40;99.90
2647;DHT22;1333;50.958;6.770;2023-11-22T05:43:55;3.40;99.90
2647;DHT22;1333;50.958;6.770;2023-11-22T05:46:22;3.40;99.90
2647;DHT22;1333;50.958;6.770;2023-11-22T05:48:50;3.40;99.90
2647;DHT22;1333;50.958;6.770;2023-11-22T05:51:16;3.40;99.90
2647;DHT22;1333;50.958;6.770;2023-11-22T05:53:42;3.40;99.90
2647;DHT22;1333;50.958;6.770;2023-11-22T05:56:07;3.30;99.90
2647;DHT22;1333;50.958;6.770;2023-11-22T05:58:34;3.30;99.90
2647;DHT22;1333;50.958;6.770;2023-11-22T06:01:04;3.30;99.90
2647;DHT22;1333;50.958;6.770;2023-11-22T06:03:29;3.30;99.90
2647;DHT22;1333;50.958;6.770;2023-11-22T06:05:55;3.30;99.90
2647;DHT22;1333;50.958;6.770;2023-11-22T06:08:22;3.20;99.90
2647;DHT22;1333;50.958;6.770;2023-11-22T06:10:48;3.20;99.90
2647;DHT22;1333;50.958;6.770;2023-11-22T06:13:14;3.20;99.90
2647;DHT22;1333;50.958;6.770;2023-11-22T06:15:40;3.20;99.90
2647;DHT22;1333;50.958;6.770;2023-11-22T06:18:06;3.10;99.90
2647;DHT22;1333;50.958;6.770;2023-11-22T06:20:31;3.10;99.90
2647;DHT22;1333;50.958;6.770;2023-11-22T06:22:57;3.10;99.90
2647;DHT22;1333;50.958;6.770;2023-11-22T06:25:22;3.00;99.90
2647;DHT22;1333;50.958;6.770;2023-11-22T06:27:48;3.00;99.90
2647;DHT22;1333;50.958;6.770;2023-11-22T06:30:13;3.00;99.90
2647;DHT22;1333;50.958;6.770;2023-11-22T06:32:40;3.00;99.90
2647;DHT22;1333;50.958;6.770;2023-11-22T06:35:07;3.00;99.90
2647;DHT22;1333;50.958;6.770;2023-11-22T06:37:34;3.00;99.90
2647;DHT22;1333;50.958;6.770;2023-11-22T06:39:59;3.00;99.90
2647;DHT22;1333;50.958;6.770;2023-11-22T06:42:25;3.00;99.90
2647;DHT22;1333;50.958;6.770;2023-11-22T06:44:52;2.90;99.90
2647;DHT22;1333;50.958;6.770;2023-11-22T06:47:18;2.90;99.90
2647;DHT22;1333;50.958;6.770;2023-11-22T06:49:44;3.00;99.90
2647;DHT22;1333;50.958;6.770;2023-11-22T06:52:10;2.90;99.90
2647;DHT22;1333;50.958;6.770;2023-11-22T06:54:35;2.90;99.90
2647;DHT22;1333;50.958;6.770;2023-11-22T06:57:02;2.90;99.90
2647;DHT22;1333;50.958;6.770;2023-11-22T06:59:28;2.90;99.90
2647;DHT22;1333;50.958;6.770;2023-11-22T07:01:54;2.90;99.90
2647;DHT22;1333;50.958;6.770;2023-11-22T07:04:21;2.90;99.90
2647;DHT22;1333;50.958;6.770;2023-11-22T07:06:48;2.90;99.90
2647;DHT22;1333;50.958;6.770;2023-11-22T07:09:14;2.90;99.90
2647;DHT22;1333;50.958;6.770;2023-11-22T07:11:40;2.90;99.90
2647;DHT22;1333;50.958;6.770;2023-11-22T07:14:05;2.90;99.90
2647;DHT22;1333;50.958;6.770;2023-11-22T07:16:34;2.90;99.90
2647;DHT22;1333;50.958;6.770;2023-11-22T07:19:00;2.90;99.90
2647;DHT22;1333;50.958;6.770;2023-11-22T07:21:31;2.90;99.90
2647;DHT22;1333;50.958;6.770;2023-11-22T07:23:57;2.90;99.90
2647;DHT22;1333;50.958;6.770;2023-11-22T07:26:24;3.00;99.90
2647;DHT22;1333;50.958;6.770;2023-11-22T07:28:52;3.00;99.90
2647;DHT22;1333;50.958;6.770;2023-11-22T07:31:17;3.10;99.90
2647;DHT22;1333;50.958;6.770;2023-11-22T07:33:43;3.10;99.90
2647;DHT22;1333;50.958;6.770;2023-11-22T07:36:09;3.10;99.90
2647;DHT22;1333;50.958;6.770;2023-11-22T07:38:34;3.20;99.90
2647;DHT22;1333;50.958;6.770;2023-11-22T07:41:00;3.20;99.90
2647;DHT22;1333;50.958;6.770;2023-11-22T07:43:26;3.30;99.90
2647;DHT22;1333;50.958;6.770;2023-11-22T07:45:52;3.30;99.90
2647;DHT22;1333;50.958;6.770;2023-11-22T07:48:17;3.40;99.90
2647;DHT22;1333;50.958;6.770;2023-11-22T07:50:43;3.50;99.90
2647;DHT22;1333;50.958;6.770;2023-11-22T07:53:10;3.70;99.90
2647;DHT22;1333;50.958;6.770;2023-11-22T07:55:37;4.20;99.90
2647;DHT22;1333;50.958;6.770;2023-11-22T07:58:03;5.80;99.90
2647;DHT22;1333;50.958;6.770;2023-11-22T08:00:28;7.60;99.90
2647;DHT22;1333;50.958;6.770;2023-11-22T08:02:55;9.50;99.90
2647;DHT22;1333;50.958;6.770;2023-11-22T08:05:20;11.40;99.90
2647;DHT22;1333;50.958;6.770;2023-11-22T08:07:49;13.30;99.90
2647;DHT22;1333;50.958;6.770;2023-11-22T08:10:14;15.20;99.90
2647;DHT22;1333;50.958;6.770;2023-11-22T08:12:45;17.00;99.90
2647;DHT22;1333;50.958;6.770;2023-11-22T08:15:12;18.50;99.90
2647;DHT22;1333;50.958;6.770;2023-11-22T08:17:41;19.90;99.90
2647;DHT22;1333;50.958;6.770;2023-11-22T08:20:08;21.10;99.90
2647;DHT22;1333;50.958;6.770;2023-11-22T08:22:39;22.20;99.90
2647;DHT22;1333;50.958;6.770;2023-11-22T08:25:07;22.60;88.30
2647;DHT22;1333;50.958;6.770;2023-11-22T08:27:33;22.80;74.30
2647;DHT22;1333;50.958;6.770;2023-11-22T08:29:59;23.20;62.40
2647;DHT22;1333;50.958;6.770;2023-11-22T08:32:28;24.00;58.40
2647;DHT22;1333;50.958;6.770;2023-11-22T08:34:56;24.80;53.90
2647;DHT22;1333;50.958;6.770;2023-11-22T08:37:22;25.60;51.60
2647;DHT22;1333;50.958;6.770;2023-11-22T08:39:47;25.90;48.90
2647;DHT22;1333;50.958;6.770;2023-11-22T08:42:14;25.80;47.10
2647;DHT22;1333;50.958;6.770;2023-11-22T08:44:39;25.70;46.00
2647;DHT22;1333;50.958;6.770;2023-11-22T08:47:05;26.00;45.00
2647;DHT22;1333;50.958;6.770;2023-11-22T08:49:30;26.20;43.60
2647;DHT22;1333;50.958;6.770;2023-11-22T08:51:56;26.10;42.10
2647;DHT22;1333;50.958;6.770;2023-11-22T08:54:22;25.70;41.60
2647;DHT22;1333;50.958;6.770;2023-11-22T08:56:47;25.60;41.20
2647;DHT22;1333;50.958;6.770;2023-11-22T08:59:13;25.60;40.30
2647;DHT22;1333;50.958;6.770;2023-11-22T09:01:40;25.40;40.00
2647;DHT22;1333;50.958;6.770;2023-11-22T09:04:06;24.90;39.80
2647;DHT22;1333;50.958;6.770;2023-11-22T09:06:33;24.50;39.80
2647;DHT22;1333;50.958;6.770;2023-11-22T09:09:00;24.20;40.10
2647;DHT22;1333;50.958;6.770;2023-11-22T09:11:26;24.30;41.50
2647;DHT22;1333;50.958;6.770;2023-11-22T09:13:51;25.00;41.50
2647;DHT22;1333;50.958;6.770;2023-11-22T09:16:19;25.70;40.60
2647;DHT22;1333;50.958;6.770;2023-11-22T09:18:47;25.80;39.40
2647;DHT22;1333;50.958;6.770;2023-11-22T09:21:13;26.00;38.80
2647;DHT22;1333;50.958;6.770;2023-11-22T09:23:39;26.70;38.50
2647;DHT22;1333;50.958;6.770;2023-11-22T09:26:04;27.60;38.10
2647;DHT22;1333;50.958;6.770;2023-11-22T09:28:30;28.30;37.00
2647;DHT22;1333;50.958;6.770;2023-11-22T09:30:57;28.80;36.10
2647;DHT22;1333;50.958;6.770;2023-11-22T09:33:31;29.10;34.80
2647;DHT22;1333;50.958;6.770;2023-11-22T09:35:57;29.40;34.50
2647;DHT22;1333;50.958;6.770;2023-11-22T09:38:23;29.50;34.20
2647;DHT22;1333;50.958;6.770;2023-11-22T09:40:49;29.40;33.40
2647;DHT22;1333;50.958;6.770;2023-11-22T09:43:17;28.80;32.60
2647;DHT22;1333;50.958;6.770;2023-11-22T09:45:49;28.00;32.50
2647;DHT22;1333;50.958;6.770;2023-11-22T09:48:20;27.20;33.10
2647;DHT22;1333;50.958;6.770;2023-11-22T09:53:40;26.10;34.10
2647;DHT22;1333;50.958;6.770;2023-11-22T09:56:07;25.80;34.40
2647;DHT22;1333;50.958;6.770;2023-11-22T09:58:34;25.60;34.50
2647;DHT22;1333;50.958;6.770;2023-11-22T10:01:00;25.60;34.60
2647;DHT22;1333;50.958;6.770;2023-11-22T10:03:27;25.70;34.70
2647;DHT22;1333;50.958;6.770;2023-11-22T10:05:56;25.90;34.90
2647;DHT22;1333;50.958;6.770;2023-11-22T10:08:27;26.20;34.80
2647;DHT22;1333;50.958;6.770;2023-11-22T10:10:53;26.40;34.50
2647;DHT22;1333;50.958;6.770;2023-11-22T10:13:20;26.30;34.00
2647;DHT22;1333;50.958;6.770;2023-11-22T10:15:49;26.10;33.70
2647;DHT22;1333;50.958;6.770;2023-11-22T10:18:15;25.70;33.30
2647;DHT22;1333;50.958;6.770;2023-11-22T10:20:43;25.30;33.40
2647;DHT22;1333;50.958;6.770;2023-11-22T10:23:13;25.00;33.60
2647;DHT22;1333;50.958;6.770;2023-11-22T10:25:49;24.70;33.60
2647;DHT22;1333;50.958;6.770;2023-11-22T10:28:26;24.50;33.50
2647;DHT22;1333;50.958;6.770;2023-11-22T10:30:53;24.20;33.50
2647;DHT22;1333;50.958;6.770;2023-11-22T10:33:19;24.10;33.50
2647;DHT22;1333;50.958;6.770;2023-11-22T10:35:49;24.00;33.30
2647;DHT22;1333;50.958;6.770;2023-11-22T10:38:18;23.90;33.70
2647;DHT22;1333;50.958;6.770;2023-11-22T10:40:45;23.80;33.70
2647;DHT22;1333;50.958;6.770;2023-11-22T10:43:11;23.70;33.60
2647;DHT22;1333;50.958;6.770;2023-11-22T10:45:37;23.60;33.60
2647;DHT22;1333;50.958;6.770;2023-11-22T10:48:04;23.50;33.50
2647;DHT22;1333;50.958;6.770;2023-11-22T10:50:30;23.40;33.10
2647;DHT22;1333;50.958;6.770;2023-11-22T10:52:57;23.10;32.60
2647;DHT22;1333;50.958;6.770;2023-11-22T10:55:27;22.90;32.30
2647;DHT22;1333;50.958;6.770;2023-11-22T10:57:55;22.70;32.50
2647;DHT22;1333;50.958;6.770;2023-11-22T11:00:22;22.90;33.20
2647;DHT22;1333;50.958;6.770;2023-11-22T11:02:53;23.40;34.00
2647;DHT22;1333;50.958;6.770;2023-11-22T11:05:27;23.80;33.20
2647;DHT22;1333;50.958;6.770;2023-11-22T11:08:20;24.40;32.90
2647;DHT22;1333;50.958;6.770;2023-11-22T11:10:47;25.00;32.50
2647;DHT22;1333;50.958;6.770;2023-11-22T11:13:14;25.40;32.70
2647;DHT22;1333;50.958;6.770;2023-11-22T11:15:42;26.00;32.80
2647;DHT22;1333;50.958;6.770;2023-11-22T11:18:14;26.90;32.70
2647;DHT22;1333;50.958;6.770;2023-11-22T11:20:50;28.00;32.20
2647;DHT22;1333;50.958;6.770;2023-11-22T11:23:18;29.20;31.20
2647;DHT22;1333;50.958;6.770;2023-11-22T11:25:47;30.10;30.20
2647;DHT22;1333;50.958;6.770;2023-11-22T11:28:14;30.70;29.10
2647;DHT22;1333;50.958;6.770;2023-11-22T11:30:49;30.80;27.90
2647;DHT22;1333;50.958;6.770;2023-11-22T11:33:26;30.60;27.80
2647;DHT22;1333;50.958;6.770;2023-11-22T11:35:52;30.00;27.50
2647;DHT22;1333;50.958;6.770;2023-11-22T11:38:20;29.50;27.30
2647;DHT22;1333;50.958;6.770;2023-11-22T11:40:47;29.00;27.40
2647;DHT22;1333;50.958;6.770;2023-11-22T11:43:13;28.40;27.40
2647;DHT22;1333;50.958;6.770;2023-11-22T11:45:40;27.70;27.70
2647;DHT22;1333;50.958;6.770;2023-11-22T11:48:14;27.30;28.00
2647;DHT22;1333;50.958;6.770;2023-11-22T11:50:40;27.20;28.50
2647;DHT22;1333;50.958;6.770;2023-11-22T11:53:06;27.10;29.70
2647;DHT22;1333;50.958;6.770;2023-11-22T11:55:32;26.80;30.00
2647;DHT22;1333;50.958;6.770;2023-11-22T11:58:04;26.70;30.40
2647;DHT22;1333;50.958;6.770;2023-11-22T12:00:30;26.80;30.30
2647;DHT22;1333;50.958;6.770;2023-11-22T12:02:56;27.10;30.40
2647;DHT22;1333;50.958;6.770;2023-11-22T12:05:21;27.20;30.20
2647;DHT22;1333;50.958;6.770;2023-11-22T12:07:47;27.30;29.60
2647;DHT22;1333;50.958;6.770;2023-11-22T12:10:13;27.20;29.50
2647;DHT22;1333;50.958;6.770;2023-11-22T12:12:39;27.10;29.50
2647;DHT22;1333;50.958;6.770;2023-11-22T12:15:05;27.10;29.70
2647;DHT22;1333;50.958;6.770;2023-11-22T12:17:35;27.00;29.30
2647;DHT22;1333;50.958;6.770;2023-11-22T12:20:15;26.70;29.40
2647;DHT22;1333;50.958;6.770;2023-11-22T12:22:43;26.20;29.30
2647;DHT22;1333;50.958;6.770;2023-11-22T12:25:10;25.40;28.90
2647;DHT22;1333;50.958;6.770;2023-11-22T12:27:44;24.10;26.50
2647;DHT22;1333;50.958;6.770;2023-11-22T12:30:31;23.50;27.70
2647;DHT22;1333;50.958;6.770;2023-11-22T12:33:04;22.80;27.40
2647;DHT22;1333;50.958;6.770;2023-11-22T12:35:30;22.20;28.00
2647;DHT22;1333;50.958;6.770;2023-11-22T12:37:58;21.30;27.60
2647;DHT22;1333;50.958;6.770;2023-11-22T12:40:24;20.40;27.10
2647;DHT22;1333;50.958;6.770;2023-11-22T12:42:52;20.40;28.30
2647;DHT22;1333;50.958;6.770;2023-11-22T12:45:23;21.20;29.30
2647;DHT22;1333;50.958;6.770;2023-11-22T12:47:50;22.70;30.00
2647;DHT22;1333;50.958;6.770;2023-11-22T12:50:36;24.40;30.80
2647;DHT22;1333;50.958;6.770;2023-11-22T12:53:12;26.00;29.50
2647;DHT22;1333;50.958;6.770;2023-11-22T12:55:42;27.30;28.70
2647;DHT22;1333;50.958;6.770;2023-11-22T12:58:08;28.00;25.90
2647;DHT22;1333;50.958;6.770;2023-11-22T13:00:34;28.70;25.20
2647;DHT22;1333;50.958;6.770;2023-11-22T13:03:00;29.30;25.80
2647;DHT22;1333;50.958;6.770;2023-11-22T13:05:26;29.70;25.40
2647;DHT22;1333;50.958;6.770;2023-11-22T13:07:51;29.80;25.30
2647;DHT22;1333;50.958;6.770;2023-11-22T13:10:19;29.80;25.20
2647;DHT22;1333;50.958;6.770;2023-11-22T13:12:49;29.70;24.40
2647;DHT22;1333;50.958;6.770;2023-11-22T13:15:15;29.50;23.90
2647;DHT22;1333;50.958;6.770;2023-11-22T13:17:41;29.50;24.40
2647;DHT22;1333;50.958;6.770;2023-11-22T13:20:08;29.80;24.80
2647;DHT22;1333;50.958;6.770;2023-11-22T13:22:41;29.60;24.10
2647;DHT22;1333;50.958;6.770;2023-11-22T13:25:08;29.00;24.20
2647;DHT22;1333;50.958;6.770;2023-11-22T13:27:36;27.50;24.00
2647;DHT22;1333;50.958;6.770;2023-11-22T13:30:02;26.50;25.60
2647;DHT22;1333;50.958;6.770;2023-11-22T13:32:28;26.20;26.80
2647;DHT22;1333;50.958;6.770;2023-11-22T13:34:54;26.40;28.00
2647;DHT22;1333;50.958;6.770;2023-11-22T13:37:23;26.90;28.60
2647;DHT22;1333;50.958;6.770;2023-11-22T13:39:49;27.20;28.70
2647;DHT22;1333;50.958;6.770;2023-11-22T13:42:15;27.10;28.60
2647;DHT22;1333;50.958;6.770;2023-11-22T13:44:40;26.90;28.60
2647;DHT22;1333;50.958;6.770;2023-11-22T13:47:12;26.80;28.70
2647;DHT22;1333;50.958;6.770;2023-11-22T13:49:39;26.30;28.60
2647;DHT22;1333;50.958;6.770;2023-11-22T13:52:05;25.30;28.40
2647;DHT22;1333;50.958;6.770;2023-11-22T13:54:31;24.30;28.60
2647;DHT22;1333;50.958;6.770;2023-11-22T13:56:59;23.30;28.70
2647;DHT22;1333;50.958;6.770;2023-11-22T13:59:24;22.60;29.20
2647;DHT22;1333;50.958;6.770;2023-11-22T14:01:51;21.80;29.70
2647;DHT22;1333;50.958;6.770;2023-11-22T14:04:16;20.80;30.00
2647;DHT22;1333;50.958;6.770;2023-11-22T14:06:42;19.80;30.80
2647;DHT22;1333;50.958;6.770;2023-11-22T14:09:07;18.80;31.40
2647;DHT22;1333;50.958;6.770;2023-11-22T14:11:34;18.00;32.10
2647;DHT22;1333;50.958;6.770;2023-11-22T14:14:01;17.00;32.60
2647;DHT22;1333;50.958;6.770;2023-11-22T14:16:29;16.30;33.30
2647;DHT22;1333;50.958;6.770;2023-11-22T14:18:56;15.60;34.20
2647;DHT22;1333;50.958;6.770;2023-11-22T14:21:23;15.10;35.20
2647;DHT22;1333;50.958;6.770;2023-11-22T14:23:50;14.50;35.90
2647;DHT22;1333;50.958;6.770;2023-11-22T14:26:15;14.10;36.70
2647;DHT22;1333;50.958;6.770;2023-11-22T14:28:41;13.60;37.40
2647;DHT22;1333;50.958;6.770;2023-11-22T14:31:07;13.20;38.00
2647;DHT22;1333;50.958;6.770;2023-11-22T14:33:32;12.50;38.20
2647;DHT22;1333;50.958;6.770;2023-11-22T14:35:58;12.00;38.50
2647;DHT22;1333;50.958;6.770;2023-11-22T14:38:24;11.70;39.10
2647;DHT22;1333;50.958;6.770;2023-11-22T14:40:50;11.40;39.70
2647;DHT22;1333;50.958;6.770;2023-11-22T14:43:16;11.10;40.10
2647;DHT22;1333;50.958;6.770;2023-11-22T14:45:41;10.80;40.60
2647;DHT22;1333;50.958;6.770;2023-11-22T14:48:07;10.60;41.00
2647;DHT22;1333;50.958;6.770;2023-11-22T14:50:34;10.50;41.70
2647;DHT22;1333;50.958;6.770;2023-11-22T14:52:59;10.20;42.10
2647;DHT22;1333;50.958;6.770;2023-11-22T14:55:25;9.70;43.50
2647;DHT22;1333;50.958;6.770;2023-11-22T14:57:51;9.80;44.30
2647;DHT22;1333;50.958;6.770;2023-11-22T15:00:19;9.70;45.00
2647;DHT22;1333;50.958;6.770;2023-11-22T15:02:45;9.60;46.20
2647;DHT22;1333;50.958;6.770;2023-11-22T15:05:18;9.40;46.00
2647;DHT22;1333;50.958;6.770;2023-11-22T15:07:43;9.20;46.50
2647;DHT22;1333;50.958;6.770;2023-11-22T15:10:10;9.10;47.30
2647;DHT22;1333;50.958;6.770;2023-11-22T15:12:36;9.00;48.40
2647;DHT22;1333;50.958;6.770;2023-11-22T15:15:02;8.90;49.20
2647;DHT22;1333;50.958;6.770;2023-11-22T15:17:28;8.50;49.50
2647;DHT22;1333;50.958;6.770;2023-11-22T15:19:54;8.40;50.10
2647;DHT22;1333;50.958;6.770;2023-11-22T15:22:20;8.20;50.80
2647;DHT22;1333;50.958;6.770;2023-11-22T15:24:45;8.10;52.00
2647;DHT22;1333;50.958;6.770;2023-11-22T15:27:11;7.90;53.40
2647;DHT22;1333;50.958;6.770;2023-11-22T15:29:36;7.80;55.20
2647;DHT22;1333;50.958;6.770;2023-11-22T15:32:02;7.70;57.70
2647;DHT22;1333;50.958;6.770;2023-11-22T15:34:28;7.60;61.10
2647;DHT22;1333;50.958;6.770;2023-11-22T15:36:54;7.60;67.50
2647;DHT22;1333;50.958;6.770;2023-11-22T15:39:19;7.70;77.40
2647;DHT22;1333;50.958;6.770;2023-11-22T15:41:47;7.70;90.40
2647;DHT22;1333;50.958;6.770;2023-11-22T15:44:13;7.70;97.60
2647;DHT22;1333;50.958;6.770;2023-11-22T15:46:39;7.70;99.90
2647;DHT22;1333;50.958;6.770;2023-11-22T15:49:09;7.80;99.90
2647;DHT22;1333;50.958;6.770;2023-11-22T15:51:35;7.80;99.90
2647;DHT22;1333;50.958;6.770;2023-11-22T15:54:02;7.80;99.90
2647;DHT22;1333;50.958;6.770;2023-11-22T15:56:27;7.80;99.90
2647;DHT22;1333;50.958;6.770;2023-11-22T15:58:53;7.80;99.90
2647;DHT22;1333;50.958;6.770;2023-11-22T16:01:28;7.80;99.90
2647;DHT22;1333;50.958;6.770;2023-11-22T16:03:54;7.80;99.90
2647;DHT22;1333;50.958;6.770;2023-11-22T16:06:22;7.80;99.90
2647;DHT22;1333;50.958;6.770;2023-11-22T16:08:48;7.80;99.90
2647;DHT22;1333;50.958;6.770;2023-11-22T16:11:14;7.80;99.90